sensor_id;sensor_type;location;lat;lon;timestamp;pressure;altitude;pressure_sealevel;temperature;humidity
29379;BME280;16362;47.202;15.258;2022-11-18T00:01:41;94624.66;;;2.27;100.00
29379;BME280;16362;47.202;15.258;2022-11-18T00:04:07;94625.97;;;2.31;100.00
29379;BME280;16362;47.202;15.258;2022-11-18T00:06:34;94625.16;;;2.30;100.00
29379;BME280;16362;47.202;15.258;2022-11-18T00:09:00;94622.84;;;2.27;100.00
29379;BME280;16362;47.202;15.258;2022-11-18T00:11:27;94617.75;;;2.26;100.00
29379;BME280;16362;47.202;15.258;2022-11-18T00:14:13;94621.53;;;2.23;100.00
29379;BME280;16362;47.202;15.258;2022-11-18T00:16:47;94642.75;;;2.22;100.00
29379;BME280;16362;47.202;15.258;2022-11-18T00:19:14;94645.72;;;2.18;100.00
29379;BME280;16362;47.202;15.258;2022-11-18T00:21:42;94648.69;;;2.15;100.00
29379;BME280;16362;47.202;15.258;2022-11-18T00:24:08;94647.16;;;1.96;100.00
29379;BME280;16362;47.202;15.258;2022-11-18T00:26:35;94637.44;;;1.89;100.00
29379;BME280;16362;47.202;15.258;2022-11-18T00:29:02;94623.47;;;1.88;100.00
29379;BME280;16362;47.202;15.258;2022-11-18T00:31:28;94610.63;;;1.93;100.00
29379;BME280;16362;47.202;15.258;2022-11-18T00:33:55;94602.09;;;1.91;100.00
29379;BME280;16362;47.202;15.258;2022-11-18T00:36:22;94614.75;;;1.96;100.00
29379;BME280;16362;47.202;15.258;2022-11-18T00:38:48;94605.25;;;2.03;100.00
29379;BME280;16362;47.202;15.258;2022-11-18T00:41:15;94609.84;;;2.01;100.00
29379;BME280;16362;47.202;15.258;2022-11-18T00:43:42;94601.13;;;2.00;100.00
29379;BME280;16362;47.202;15.258;2022-11-18T00:46:09;94606.88;;;2.04;100.00
29379;BME280;16362;47.202;15.258;2022-11-18T00:48:36;94606.88;;;2.04;100.00
29379;BME280;16362;47.202;15.258;2022-11-18T00:51:11;94609.66;;;2.02;100.00
29379;BME280;16362;47.202;15.258;2022-11-18T00:53:39;94613.16;;;2.03;100.00
29379;BME280;16362;47.202;15.258;2022-11-18T00:56:05;94610.50;;;2.03;100.00
29379;BME280;16362;47.202;15.258;2022-11-18T00:58:32;94606.88;;;2.04;100.00
29379;BME280;16362;47.202;15.258;2022-11-18T01:00:59;94605.09;;;2.05;100.00
29379;BME280;16362;47.202;15.258;2022-11-18T01:03:27;94610.34;;;2.05;100.00
29379;BME280;16362;47.202;15.258;2022-11-18T01:05:53;94603.44;;;2.04;100.00
29379;BME280;16362;47.202;15.258;2022-11-18T01:08:20;94598.69;;;2.07;100.00
29379;BME280;16362;47.202;15.258;2022-11-18T01:17:18;94542.75;;;2.05;100.00
29379;BME280;16362;47.202;15.258;2022-11-18T01:26:47;94519.88;;;2.06;100.00
29379;BME280;16362;47.202;15.258;2022-11-18T01:29:14;94505.25;;;2.03;100.00
29379;BME280;16362;47.202;15.258;2022-11-18T01:31:41;94506.88;;;2.04;100.00
29379;BME280;16362;47.202;15.258;2022-11-18T01:34:28;94508.19;;;2.08;100.00
29379;BME280;16362;47.202;15.258;2022-11-18T01:36:54;94500.97;;;2.02;100.00
29379;BME280;16362;47.202;15.258;2022-11-18T01:39:22;94501.28;;;1.82;100.00
29379;BME280;16362;47.202;15.258;2022-11-18T01:41:49;94504.25;;;1.79;100.00
29379;BME280;16362;47.202;15.258;2022-11-18T01:47:00;94522.31;;;1.66;100.00
29379;BME280;16362;47.202;15.258;2022-11-18T01:49:27;94510.97;;;1.57;100.00
29379;BME280;16362;47.202;15.258;2022-11-18T01:51:54;94502.59;;;1.54;100.00
29379;BME280;16362;47.202;15.258;2022-11-18T01:54:23;94499.63;;;1.57;100.00
29379;BME280;16362;47.202;15.258;2022-11-18T01:56:51;94489.78;;;1.50;100.00
29379;BME280;16362;47.202;15.258;2022-11-18T01:59:21;94497.31;;;1.54;100.00
29379;BME280;16362;47.202;15.258;2022-11-18T02:01:49;94492.75;;;1.56;100.00
29379;BME280;16362;47.202;15.258;2022-11-18T02:04:20;94488.13;;;1.58;100.00
29379;BME280;16362;47.202;15.258;2022-11-18T02:06:48;94480.25;;;1.66;100.00
29379;BME280;16362;47.202;15.258;2022-11-18T02:09:14;94479.25;;;1.67;100.00
29379;BME280;16362;47.202;15.258;2022-11-18T02:11:42;94473.84;;;1.60;100.00
29379;BME280;16362;47.202;15.258;2022-11-18T02:14:23;94488.81;;;1.60;100.00
29379;BME280;16362;47.202;15.258;2022-11-18T02:29:43;94502.25;;;1.48;100.00
29379;BME280;16362;47.202;15.258;2022-11-18T02:32:25;94499.28;;;1.43;100.00
29379;BME280;16362;47.202;15.258;2022-11-18T02:37:49;94494.66;;;1.29;100.00
29379;BME280;16362;47.202;15.258;2022-11-18T02:40:21;94502.91;;;1.34;100.00
29379;BME280;16362;47.202;15.258;2022-11-18T02:42:51;94497.13;;;1.39;100.00
29379;BME280;16362;47.202;15.258;2022-11-18T02:45:20;94487.44;;;1.39;100.00
29379;BME280;16362;47.202;15.258;2022-11-18T02:47:47;94484.50;;;1.42;100.00
29379;BME280;16362;47.202;15.258;2022-11-18T02:50:16;94489.44;;;1.45;100.00
29379;BME280;16362;47.202;15.258;2022-11-18T02:52:45;94495.66;;;1.44;100.00
29379;BME280;16362;47.202;15.258;2022-11-18T02:55:12;94495.50;;;1.38;100.00
29379;BME280;16362;47.202;15.258;2022-11-18T02:57:41;94495.03;;;1.42;100.00
29379;BME280;16362;47.202;15.258;2022-11-18T03:00:09;94492.88;;;1.46;100.00
29379;BME280;16362;47.202;15.258;2022-11-18T03:02:43;94497.66;;;1.50;100.00
29379;BME280;16362;47.202;15.258;2022-11-18T03:05:17;94482.38;;;1.54;100.00
29379;BME280;16362;47.202;15.258;2022-11-18T03:07:46;94485.16;;;1.52;100.00
29379;BME280;16362;47.202;15.258;2022-11-18T03:10:15;94481.72;;;1.52;100.00
29379;BME280;16362;47.202;15.258;2022-11-18T03:20:09;94473.16;;;1.50;100.00
29379;BME280;16362;47.202;15.258;2022-11-18T03:22:39;94477.59;;;1.49;100.00
29379;BME280;16362;47.202;15.258;2022-11-18T03:25:09;94476.47;;;1.52;100.00
29379;BME280;16362;47.202;15.258;2022-11-18T03:30:14;94487.41;;;1.31;100.00
29379;BME280;16362;47.202;15.258;2022-11-18T03:32:42;94487.75;;;1.28;100.00
29379;BME280;16362;47.202;15.258;2022-11-18T03:35:12;94491.03;;;1.30;100.00
29379;BME280;16362;47.202;15.258;2022-11-18T03:37:41;94497.91;;;1.23;100.00
29379;BME280;16362;47.202;15.258;2022-11-18T03:40:10;94507.28;;;1.17;100.00
29379;BME280;16362;47.202;15.258;2022-11-18T03:42:40;94500.19;;;1.17;100.00
29379;BME280;16362;47.202;15.258;2022-11-18T03:45:09;94504.16;;;1.22;100.00
29379;BME280;16362;47.202;15.258;2022-11-18T03:47:40;94498.59;;;1.25;100.00
29379;BME280;16362;47.202;15.258;2022-11-18T03:50:18;94484.78;;;1.23;100.00
29379;BME280;16362;47.202;15.258;2022-11-18T03:52:47;94486.88;;;1.11;100.00
29379;BME280;16362;47.202;15.258;2022-11-18T03:55:20;94488.84;;;1.09;100.00
29379;BME280;16362;47.202;15.258;2022-11-18T04:00:14;94482.28;;;1.13;100.00
29379;BME280;16362;47.202;15.258;2022-11-18T04:02:41;94479.19;;;1.17;100.00
29379;BME280;16362;47.202;15.258;2022-11-18T04:05:09;94474.75;;;1.18;100.00
29379;BME280;16362;47.202;15.258;2022-11-18T04:07:38;94469.31;;;1.11;100.00
29379;BME280;16362;47.202;15.258;2022-11-18T04:10:12;94462.59;;;1.09;100.00
29379;BME280;16362;47.202;15.258;2022-11-18T04:15:16;94454.03;;;1.07;100.00
29379;BME280;16362;47.202;15.258;2022-11-18T04:17:42;94447.63;;;1.09;100.00
29379;BME280;16362;47.202;15.258;2022-11-18T04:20:13;94451.72;;;1.04;100.00
29379;BME280;16362;47.202;15.258;2022-11-18T04:22:42;94442.03;;;1.04;100.00
29379;BME280;16362;47.202;15.258;2022-11-18T04:25:08;94439.28;;;1.06;100.00
29379;BME280;16362;47.202;15.258;2022-11-18T04:27:35;94433.69;;;1.09;100.00
29379;BME280;16362;47.202;15.258;2022-11-18T04:30:02;94433.69;;;1.17;100.00
29379;BME280;16362;47.202;15.258;2022-11-18T04:32:29;94429.94;;;1.20;100.00
29379;BME280;16362;47.202;15.258;2022-11-18T04:34:55;94429.78;;;1.29;100.00
29379;BME280;16362;47.202;15.258;2022-11-18T04:37:22;94433.53;;;1.35;100.00
29379;BME280;16362;47.202;15.258;2022-11-18T04:39:49;94440.78;;;1.41;100.00
29379;BME280;16362;47.202;15.258;2022-11-18T04:42:15;94439.66;;;1.52;100.00
29379;BME280;16362;47.202;15.258;2022-11-18T04:44:42;94444.41;;;1.40;100.00
29379;BME280;16362;47.202;15.258;2022-11-18T04:47:08;94440.78;;;1.41;100.00
29379;BME280;16362;47.202;15.258;2022-11-18T04:49:35;94437.84;;;1.44;100.00
29379;BME280;16362;47.202;15.258;2022-11-18T04:52:02;94420.41;;;1.43;100.00
29379;BME280;16362;47.202;15.258;2022-11-18T04:54:29;94422.41;;;1.49;100.00
29379;BME280;16362;47.202;15.258;2022-11-18T04:56:56;94411.88;;;1.58;100.00
29379;BME280;16362;47.202;15.258;2022-11-18T04:59:24;94414.50;;;1.74;100.00
29379;BME280;16362;47.202;15.258;2022-11-18T05:01:51;94408.75;;;1.79;100.00
29379;BME280;16362;47.202;15.258;2022-11-18T05:04:19;94403.31;;;1.80;100.00
29379;BME280;16362;47.202;15.258;2022-11-18T05:06:46;94404.63;;;1.84;100.00
29379;BME280;16362;47.202;15.258;2022-11-18T05:09:12;94413.31;;;1.93;100.00
29379;BME280;16362;47.202;15.258;2022-11-18T05:11:39;94411.50;;;2.10;100.00
29379;BME280;16362;47.202;15.258;2022-11-18T05:14:25;94411.81;;;2.24;100.00
29379;BME280;16362;47.202;15.258;2022-11-18T05:16:52;94415.72;;;2.28;100.00
29379;BME280;16362;47.202;15.258;2022-11-18T05:19:19;94422.94;;;2.34;100.00
29379;BME280;16362;47.202;15.258;2022-11-18T05:21:46;94417.34;;;2.37;100.00
29379;BME280;16362;47.202;15.258;2022-11-18T05:24:13;94411.09;;;2.46;100.00
29379;BME280;16362;47.202;15.258;2022-11-18T05:26:40;94410.38;;;2.52;100.00
29379;BME280;16362;47.202;15.258;2022-11-18T05:29:06;94409.91;;;2.49;100.00
29379;BME280;16362;47.202;15.258;2022-11-18T05:31:33;94415.03;;;2.42;100.00
29379;BME280;16362;47.202;15.258;2022-11-18T05:33:59;94412.56;;;2.41;100.00
29379;BME280;16362;47.202;15.258;2022-11-18T05:36:26;94401.38;;;2.39;100.00
29379;BME280;16362;47.202;15.258;2022-11-18T05:38:53;94391.03;;;2.37;100.00
29379;BME280;16362;47.202;15.258;2022-11-18T05:41:20;94378.84;;;2.36;100.00
29379;BME280;16362;47.202;15.258;2022-11-18T05:44:05;94370.97;;;2.36;100.00
29379;BME280;16362;47.202;15.258;2022-11-18T05:46:31;94373.63;;;2.28;100.00
29379;BME280;16362;47.202;15.258;2022-11-18T05:48:58;94373.78;;;2.26;100.00
29379;BME280;16362;47.202;15.258;2022-11-18T05:51:25;94369.38;;;2.18;100.00
29379;BME280;16362;47.202;15.258;2022-11-18T05:53:51;94373.97;;;2.16;100.00
29379;BME280;16362;47.202;15.258;2022-11-18T05:58:45;94370.69;;;2.14;100.00
29379;BME280;16362;47.202;15.258;2022-11-18T06:01:12;94373.50;;;2.13;100.00
29379;BME280;16362;47.202;15.258;2022-11-18T06:03:41;94380.56;;;2.12;100.00
29379;BME280;16362;47.202;15.258;2022-11-18T06:06:08;94389.47;;;2.11;100.00
29379;BME280;16362;47.202;15.258;2022-11-18T06:08:40;94391.09;;;2.12;100.00
29379;BME280;16362;47.202;15.258;2022-11-18T06:11:07;94385.50;;;2.15;100.00
29379;BME280;16362;47.202;15.258;2022-11-18T06:13:38;94384.50;;;2.16;100.00
29379;BME280;16362;47.202;15.258;2022-11-18T06:16:06;94381.53;;;2.19;100.00
29379;BME280;16362;47.202;15.258;2022-11-18T06:18:32;94370.84;;;2.21;100.00
29379;BME280;16362;47.202;15.258;2022-11-18T06:21:00;94364.78;;;2.21;100.00
29379;BME280;16362;47.202;15.258;2022-11-18T06:23:33;94365.72;;;2.28;100.00
29379;BME280;16362;47.202;15.258;2022-11-18T06:26:01;94376.25;;;2.28;100.00
29379;BME280;16362;47.202;15.258;2022-11-18T06:28:27;94384.47;;;2.33;100.00
29379;BME280;16362;47.202;15.258;2022-11-18T06:30:54;94391.66;;;2.39;100.00
29379;BME280;16362;47.202;15.258;2022-11-18T06:33:21;94385.06;;;2.43;100.00
29379;BME280;16362;47.202;15.258;2022-11-18T06:35:48;94382.09;;;2.55;100.00
29379;BME280;16362;47.202;15.258;2022-11-18T06:38:14;94382.25;;;2.53;100.00
29379;BME280;16362;47.202;15.258;2022-11-18T06:40:41;94384.53;;;2.56;100.00
29379;BME280;16362;47.202;15.258;2022-11-18T06:43:10;94377.44;;;2.57;100.00
29379;BME280;16362;47.202;15.258;2022-11-18T06:45:59;94383.69;;;2.56;100.00
29379;BME280;16362;47.202;15.258;2022-11-18T06:48:44;94377.94;;;2.60;100.00
29379;BME280;16362;47.202;15.258;2022-11-18T06:51:11;94381.88;;;2.64;100.00
29379;BME280;16362;47.202;15.258;2022-11-18T06:53:38;94386.59;;;2.69;100.00
29379;BME280;16362;47.202;15.258;2022-11-18T06:56:05;94386.75;;;2.76;100.00
29379;BME280;16362;47.202;15.258;2022-11-18T06:58:32;94391.03;;;2.77;100.00
29379;BME280;16362;47.202;15.258;2022-11-18T07:01:09;94401.34;;;2.86;100.00
29379;BME280;16362;47.202;15.258;2022-11-18T07:03:37;94394.69;;;2.99;100.00
29379;BME280;16362;47.202;15.258;2022-11-18T07:06:03;94399.63;;;3.02;100.00
29379;BME280;16362;47.202;15.258;2022-11-18T07:08:30;94401.13;;;2.96;100.00
29379;BME280;16362;47.202;15.258;2022-11-18T07:10:56;94402.75;;;2.97;100.00
29379;BME280;16362;47.202;15.258;2022-11-18T07:13:23;94403.44;;;2.99;100.00
29379;BME280;16362;47.202;15.258;2022-11-18T07:15:50;94406.06;;;2.99;100.00
29379;BME280;16362;47.202;15.258;2022-11-18T07:18:16;94411.66;;;2.96;100.00
29379;BME280;16362;47.202;15.258;2022-11-18T07:20:43;94425.31;;;3.00;100.00
29379;BME280;16362;47.202;15.258;2022-11-18T07:23:09;94429.44;;;3.02;100.00
29379;BME280;16362;47.202;15.258;2022-11-18T07:25:36;94428.91;;;3.07;100.00
29379;BME280;16362;47.202;15.258;2022-11-18T07:28:10;94428.03;;;3.15;100.00
29379;BME280;16362;47.202;15.258;2022-11-18T07:30:36;94430.97;;;3.20;100.00
29379;BME280;16362;47.202;15.258;2022-11-18T07:33:03;94432.09;;;3.26;100.00
29379;BME280;16362;47.202;15.258;2022-11-18T07:35:29;94441.66;;;3.27;100.00
29379;BME280;16362;47.202;15.258;2022-11-18T07:37:56;94441.25;;;3.38;100.00
29379;BME280;16362;47.202;15.258;2022-11-18T07:40:22;94444.66;;;3.47;100.00
29379;BME280;16362;47.202;15.258;2022-11-18T07:42:49;94454.84;;;3.50;100.00
29379;BME280;16362;47.202;15.258;2022-11-18T07:45:16;94454.66;;;3.51;100.00
29379;BME280;16362;47.202;15.258;2022-11-18T07:47:42;94446.75;;;3.51;100.00
29379;BME280;16362;47.202;15.258;2022-11-18T07:50:09;94452.16;;;3.58;100.00
29379;BME280;16362;47.202;15.258;2022-11-18T07:52:35;94450.47;;;3.65;100.00
29379;BME280;16362;47.202;15.258;2022-11-18T07:55:02;94457.38;;;3.66;100.00
29379;BME280;16362;47.202;15.258;2022-11-18T07:57:28;94458.03;;;3.68;100.00
29379;BME280;16362;47.202;15.258;2022-11-18T07:59:55;94456.13;;;3.77;100.00
29379;BME280;16362;47.202;15.258;2022-11-18T08:02:21;94457.41;;;3.81;100.00
29379;BME280;16362;47.202;15.258;2022-11-18T08:04:48;94463.16;;;3.85;100.00
29379;BME280;16362;47.202;15.258;2022-11-18T08:07:14;94451.97;;;3.83;100.00
29379;BME280;16362;47.202;15.258;2022-11-18T08:09:41;94462.38;;;3.84;100.00
29379;BME280;16362;47.202;15.258;2022-11-18T08:12:08;94469.63;;;3.82;100.00
29379;BME280;16362;47.202;15.258;2022-11-18T08:14:34;94473.53;;;3.86;100.00
29379;BME280;16362;47.202;15.258;2022-11-18T08:17:01;94476.19;;;3.86;100.00
29379;BME280;16362;47.202;15.258;2022-11-18T08:19:27;94470.72;;;3.88;100.00
29379;BME280;16362;47.202;15.258;2022-11-18T08:21:54;94463.00;;;3.86;100.00
29379;BME280;16362;47.202;15.258;2022-11-18T08:24:20;94461.19;;;3.87;100.00
29379;BME280;16362;47.202;15.258;2022-11-18T08:26:47;94466.72;;;3.92;100.00
29379;BME280;16362;47.202;15.258;2022-11-18T08:29:13;94463.47;;;3.90;100.00
29379;BME280;16362;47.202;15.258;2022-11-18T08:31:47;94462.63;;;3.90;100.00
29379;BME280;16362;47.202;15.258;2022-11-18T08:34:13;94458.63;;;3.94;100.00
29379;BME280;16362;47.202;15.258;2022-11-18T08:36:40;94456.66;;;3.96;100.00
29379;BME280;16362;47.202;15.258;2022-11-18T08:39:07;94457.66;;;3.95;100.00
29379;BME280;16362;47.202;15.258;2022-11-18T08:41:35;94460.75;;;3.98;100.00
29379;BME280;16362;47.202;15.258;2022-11-18T08:44:02;94460.94;;;3.97;100.00
29379;BME280;16362;47.202;15.258;2022-11-18T08:46:29;94461.38;;;4.00;100.00
29379;BME280;16362;47.202;15.258;2022-11-18T08:48:56;94456.94;;;4.01;100.00
29379;BME280;16362;47.202;15.258;2022-11-18T08:51:23;94444.03;;;4.06;100.00
29379;BME280;16362;47.202;15.258;2022-11-18T08:53:49;94437.59;;;4.09;100.00
29379;BME280;16362;47.202;15.258;2022-11-18T08:56:17;94452.59;;;4.08;100.00
29379;BME280;16362;47.202;15.258;2022-11-18T08:58:44;94457.50;;;4.11;100.00
29379;BME280;16362;47.202;15.258;2022-11-18T09:01:11;94467.25;;;4.11;100.00
29379;BME280;16362;47.202;15.258;2022-11-18T09:03:38;94465.72;;;4.16;100.00
29379;BME280;16362;47.202;15.258;2022-11-18T09:06:08;94464.91;;;4.16;100.00
29379;BME280;16362;47.202;15.258;2022-11-18T09:08:36;94463.47;;;4.28;100.00
29379;BME280;16362;47.202;15.258;2022-11-18T09:11:12;94466.09;;;4.28;100.00
29379;BME280;16362;47.202;15.258;2022-11-18T09:13:39;94474.50;;;4.32;100.00
29379;BME280;16362;47.202;15.258;2022-11-18T09:16:27;94473.13;;;4.36;100.00
29379;BME280;16362;47.202;15.258;2022-11-18T09:18:54;94479.88;;;4.38;100.00
29379;BME280;16362;47.202;15.258;2022-11-18T09:21:21;94468.75;;;4.43;100.00
29379;BME280;16362;47.202;15.258;2022-11-18T09:23:48;94469.84;;;4.49;100.00
29379;BME280;16362;47.202;15.258;2022-11-18T09:26:16;94469.94;;;4.55;100.00
29379;BME280;16362;47.202;15.258;2022-11-18T09:28:43;94470.50;;;4.66;100.00
29379;BME280;16362;47.202;15.258;2022-11-18T09:31:10;94466.41;;;4.63;100.00
29379;BME280;16362;47.202;15.258;2022-11-18T09:33:37;94462.59;;;4.66;100.00
29379;BME280;16362;47.202;15.258;2022-11-18T09:36:05;94464.84;;;4.69;100.00
29379;BME280;16362;47.202;15.258;2022-11-18T09:38:36;94458.22;;;4.73;100.00
29379;BME280;16362;47.202;15.258;2022-11-18T09:45:57;94470.78;;;4.86;100.00
29379;BME280;16362;47.202;15.258;2022-11-18T09:48:26;94466.03;;;4.81;100.00
29379;BME280;16362;47.202;15.258;2022-11-18T09:51:13;94470.03;;;4.92;100.00
29379;BME280;16362;47.202;15.258;2022-11-18T09:53:40;94475.22;;;5.00;100.00
29379;BME280;16362;47.202;15.258;2022-11-18T09:56:14;94476.25;;;4.99;100.00
29379;BME280;16362;47.202;15.258;2022-11-18T09:58:41;94475.88;;;5.02;100.00
29379;BME280;16362;47.202;15.258;2022-11-18T10:01:12;94472.31;;;5.10;100.00
29379;BME280;16362;47.202;15.258;2022-11-18T10:03:40;94471.09;;;5.13;100.00
29379;BME280;16362;47.202;15.258;2022-11-18T10:06:23;94473.59;;;5.14;100.00
29379;BME280;16362;47.202;15.258;2022-11-18T10:11:27;94478.03;;;5.29;100.00
29379;BME280;16362;47.202;15.258;2022-11-18T10:21:50;94452.91;;;5.39;100.00
29379;BME280;16362;47.202;15.258;2022-11-18T10:24:16;94444.34;;;5.37;100.00
29379;BME280;16362;47.202;15.258;2022-11-18T10:26:44;94453.47;;;5.35;100.00
29379;BME280;16362;47.202;15.258;2022-11-18T10:29:11;94450.00;;;5.34;100.00
29379;BME280;16362;47.202;15.258;2022-11-18T10:31:51;94444.53;;;5.36;100.00
29379;BME280;16362;47.202;15.258;2022-11-18T10:34:20;94454.94;;;5.37;100.00
29379;BME280;16362;47.202;15.258;2022-11-18T10:37:00;94449.25;;;5.40;100.00
29379;BME280;16362;47.202;15.258;2022-11-18T10:39:27;94452.97;;;5.46;100.00
29379;BME280;16362;47.202;15.258;2022-11-18T10:42:00;94446.38;;;5.57;100.00
29379;BME280;16362;47.202;15.258;2022-11-18T10:47:30;94431.41;;;5.64;100.00
29379;BME280;16362;47.202;15.258;2022-11-18T10:49:52;94421.19;;;5.61;100.00
29379;BME280;16362;47.202;15.258;2022-11-18T10:52:19;94413.69;;;5.65;100.00
29379;BME280;16362;47.202;15.258;2022-11-18T10:55:04;94408.19;;;5.66;100.00
29379;BME280;16362;47.202;15.258;2022-11-18T10:57:32;94407.06;;;5.76;100.00
29379;BME280;16362;47.202;15.258;2022-11-18T11:00:00;94400.25;;;5.88;100.00
29379;BME280;16362;47.202;15.258;2022-11-18T11:02:31;94407.38;;;5.87;100.00
29379;BME280;16362;47.202;15.258;2022-11-18T11:05:00;94399.66;;;5.93;100.00
29379;BME280;16362;47.202;15.258;2022-11-18T11:09:59;94397.41;;;6.11;100.00
29379;BME280;16362;47.202;15.258;2022-11-18T11:12:26;94390.28;;;6.12;100.00
29379;BME280;16362;47.202;15.258;2022-11-18T11:14:59;94384.44;;;6.23;100.00
29379;BME280;16362;47.202;15.258;2022-11-18T11:17:30;94397.69;;;6.23;100.00
29379;BME280;16362;47.202;15.258;2022-11-18T11:22:29;94391.84;;;6.34;100.00
29379;BME280;16362;47.202;15.258;2022-11-18T11:24:56;94399.38;;;6.31;100.00
29379;BME280;16362;47.202;15.258;2022-11-18T11:30:21;94393.88;;;6.32;100.00
29379;BME280;16362;47.202;15.258;2022-11-18T11:37:58;94401.47;;;6.42;100.00
29379;BME280;16362;47.202;15.258;2022-11-18T11:45:46;94407.94;;;6.33;100.00
29379;BME280;16362;47.202;15.258;2022-11-18T11:50:49;94401.78;;;6.26;100.00
29379;BME280;16362;47.202;15.258;2022-11-18T12:01:26;94404.72;;;6.37;100.00
29379;BME280;16362;47.202;15.258;2022-11-18T12:06:26;94403.72;;;6.45;100.00
29379;BME280;16362;47.202;15.258;2022-11-18T12:13:53;94390.22;;;6.75;100.00
29379;BME280;16362;47.202;15.258;2022-11-18T12:27:03;94375.81;;;6.84;100.00
29379;BME280;16362;47.202;15.258;2022-11-18T12:29:35;94377.25;;;6.87;100.00
29379;BME280;16362;47.202;15.258;2022-11-18T12:32:02;94367.06;;;6.90;100.00
29379;BME280;16362;47.202;15.258;2022-11-18T12:36:56;94359.38;;;7.09;100.00
29379;BME280;16362;47.202;15.258;2022-11-18T12:44:34;94349.63;;;7.23;100.00
29379;BME280;16362;47.202;15.258;2022-11-18T12:47:02;94342.09;;;7.47;100.00
29379;BME280;16362;47.202;15.258;2022-11-18T12:51:59;94341.06;;;7.34;100.00
29379;BME280;16362;47.202;15.258;2022-11-18T12:54:33;94343.13;;;7.39;100.00
29379;BME280;16362;47.202;15.258;2022-11-18T12:59:30;94341.72;;;7.50;100.00
29379;BME280;16362;47.202;15.258;2022-11-18T13:02:01;94345.41;;;7.75;100.00
29379;BME280;16362;47.202;15.258;2022-11-18T13:04:28;94351.72;;;7.68;100.00
29379;BME280;16362;47.202;15.258;2022-11-18T13:06:54;94344.38;;;7.56;100.00
29379;BME280;16362;47.202;15.258;2022-11-18T13:09:26;94332.72;;;7.64;100.00
29379;BME280;16362;47.202;15.258;2022-11-18T13:11:58;94343.34;;;7.57;100.00
29379;BME280;16362;47.202;15.258;2022-11-18T13:14:27;94338.00;;;7.44;100.00
29379;BME280;16362;47.202;15.258;2022-11-18T13:20:21;94331.28;;;7.35;100.00
29379;BME280;16362;47.202;15.258;2022-11-18T13:23:34;94327.81;;;7.41;100.00
29379;BME280;16362;47.202;15.258;2022-11-18T13:25:55;94332.09;;;7.42;100.00
29379;BME280;16362;47.202;15.258;2022-11-18T13:33:23;94354.13;;;7.42;100.00
29379;BME280;16362;47.202;15.258;2022-11-18T13:35:50;94352.91;;;7.38;100.00
29379;BME280;16362;47.202;15.258;2022-11-18T13:38:22;94357.00;;;7.41;100.00
29379;BME280;16362;47.202;15.258;2022-11-18T13:40:53;94362.94;;;7.43;100.00
29379;BME280;16362;47.202;15.258;2022-11-18T13:43:37;94371.47;;;7.38;100.00
29379;BME280;16362;47.202;15.258;2022-11-18T13:46:12;94373.34;;;7.51;100.00
29379;BME280;16362;47.202;15.258;2022-11-18T13:48:40;94378.66;;;7.45;100.00
29379;BME280;16362;47.202;15.258;2022-11-18T13:51:11;94380.28;;;7.39;100.00
29379;BME280;16362;47.202;15.258;2022-11-18T13:53:37;94378.63;;;7.38;100.00
29379;BME280;16362;47.202;15.258;2022-11-18T13:56:05;94388.81;;;7.34;100.00
29379;BME280;16362;47.202;15.258;2022-11-18T13:58:37;94383.28;;;7.29;100.00
29379;BME280;16362;47.202;15.258;2022-11-18T14:01:29;94393.09;;;7.29;100.00
29379;BME280;16362;47.202;15.258;2022-11-18T14:04:00;94393.94;;;7.36;100.00
29379;BME280;16362;47.202;15.258;2022-11-18T14:06:28;94398.63;;;7.34;100.00
29379;BME280;16362;47.202;15.258;2022-11-18T14:12:04;94411.44;;;7.23;100.00
29379;BME280;16362;47.202;15.258;2022-11-18T14:14:38;94411.06;;;7.27;100.00
29379;BME280;16362;47.202;15.258;2022-11-18T14:19:57;94418.81;;;7.21;100.00
29379;BME280;16362;47.202;15.258;2022-11-18T14:24:55;94423.47;;;7.19;100.00
29379;BME280;16362;47.202;15.258;2022-11-18T14:35:32;94425.84;;;7.01;100.00
29379;BME280;16362;47.202;15.258;2022-11-18T14:38:00;94417.47;;;6.97;100.00
29379;BME280;16362;47.202;15.258;2022-11-18T14:40:55;94423.78;;;6.96;100.00
29379;BME280;16362;47.202;15.258;2022-11-18T14:43:22;94418.88;;;6.93;100.00
29379;BME280;16362;47.202;15.258;2022-11-18T14:45:49;94425.06;;;7.07;100.00
29379;BME280;16362;47.202;15.258;2022-11-18T14:48:16;94418.75;;;7.08;100.00
29379;BME280;16362;47.202;15.258;2022-11-18T14:50:44;94421.13;;;6.96;100.00
29379;BME280;16362;47.202;15.258;2022-11-18T14:53:13;94424.97;;;6.87;100.00
29379;BME280;16362;47.202;15.258;2022-11-18T14:55:40;94429.44;;;6.80;100.00
29379;BME280;16362;47.202;15.258;2022-11-18T14:58:12;94426.19;;;6.84;100.00
29379;BME280;16362;47.202;15.258;2022-11-18T15:00:43;94424.94;;;6.80;100.00
29379;BME280;16362;47.202;15.258;2022-11-18T15:03:10;94433.06;;;6.72;100.00
29379;BME280;16362;47.202;15.258;2022-11-18T15:05:37;94426.50;;;6.68;100.00
29379;BME280;16362;47.202;15.258;2022-11-18T15:08:04;94427.75;;;6.72;100.00
29379;BME280;16362;47.202;15.258;2022-11-18T15:10:30;94418.81;;;6.80;100.00
29379;BME280;16362;47.202;15.258;2022-11-18T15:12:57;94418.34;;;6.69;100.00
29379;BME280;16362;47.202;15.258;2022-11-18T15:15:23;94422.59;;;6.64;100.00
29379;BME280;16362;47.202;15.258;2022-11-18T15:17:50;94421.59;;;6.65;100.00
29379;BME280;16362;47.202;15.258;2022-11-18T15:20:20;94428.06;;;6.55;100.00
29379;BME280;16362;47.202;15.258;2022-11-18T15:22:46;94432.31;;;6.50;100.00
29379;BME280;16362;47.202;15.258;2022-11-18T15:25:13;94443.47;;;6.45;100.00
29379;BME280;16362;47.202;15.258;2022-11-18T15:27:39;94438.19;;;6.45;100.00
29379;BME280;16362;47.202;15.258;2022-11-18T15:30:07;94450.19;;;6.41;100.00
29379;BME280;16362;47.202;15.258;2022-11-18T15:32:33;94449.91;;;6.29;100.00